sensor_id;sensor_type;location;lat;lon;timestamp;temperature;humidity
18365;DHT22;9309;52.126;11.616;2023-06-10T00:01:21;17.00;69.00
18365;DHT22;9309;52.126;11.616;2023-06-10T00:03:49;17.00;69.20
18365;DHT22;9309;52.126;11.616;2023-06-10T00:06:17;16.90;69.00
18365;DHT22;9309;52.126;11.616;2023-06-10T00:08:45;16.80;69.60
18365;DHT22;9309;52.126;11.616;2023-06-10T00:11:12;16.80;70.00
18365;DHT22;9309;52.126;11.616;2023-06-10T00:13:39;16.60;70.50
18365;DHT22;9309;52.126;11.616;2023-06-10T00:16:06;16.60;70.90
18365;DHT22;9309;52.126;11.616;2023-06-10T00:18:33;16.50;71.30
18365;DHT22;9309;52.126;11.616;2023-06-10T00:21:02;16.40;71.40
18365;DHT22;9309;52.126;11.616;2023-06-10T00:23:30;16.30;72.30
18365;DHT22;9309;52.126;11.616;2023-06-10T00:25:59;16.30;72.40
18365;DHT22;9309;52.126;11.616;2023-06-10T00:28:26;16.40;72.00
18365;DHT22;9309;52.126;11.616;2023-06-10T00:30:55;16.40;72.10
18365;DHT22;9309;52.126;11.616;2023-06-10T00:33:23;16.40;71.50
18365;DHT22;9309;52.126;11.616;2023-06-10T00:35:50;16.40;71.40
18365;DHT22;9309;52.126;11.616;2023-06-10T00:38:16;16.30;72.60
18365;DHT22;9309;52.126;11.616;2023-06-10T00:40:43;16.30;72.70
18365;DHT22;9309;52.126;11.616;2023-06-10T00:43:11;16.30;72.50
18365;DHT22;9309;52.126;11.616;2023-06-10T00:45:38;16.40;71.90
18365;DHT22;9309;52.126;11.616;2023-06-10T00:48:05;16.20;72.70
18365;DHT22;9309;52.126;11.616;2023-06-10T00:50:32;16.10;73.20
18365;DHT22;9309;52.126;11.616;2023-06-10T00:53:00;16.10;73.20
18365;DHT22;9309;52.126;11.616;2023-06-10T00:55:29;15.90;73.90
18365;DHT22;9309;52.126;11.616;2023-06-10T00:57:57;15.80;74.60
18365;DHT22;9309;52.126;11.616;2023-06-10T01:00:25;15.70;74.70
18365;DHT22;9309;52.126;11.616;2023-06-10T01:02:52;15.80;74.20
18365;DHT22;9309;52.126;11.616;2023-06-10T01:05:19;15.70;75.00
18365;DHT22;9309;52.126;11.616;2023-06-10T01:07:58;15.60;75.70
18365;DHT22;9309;52.126;11.616;2023-06-10T01:10:33;15.60;75.10
18365;DHT22;9309;52.126;11.616;2023-06-10T01:13:02;15.60;75.40
18365;DHT22;9309;52.126;11.616;2023-06-10T01:15:31;15.50;76.00
18365;DHT22;9309;52.126;11.616;2023-06-10T01:17:59;15.30;76.70
18365;DHT22;9309;52.126;11.616;2023-06-10T01:20:30;15.30;76.70
18365;DHT22;9309;52.126;11.616;2023-06-10T01:22:59;15.10;77.50
18365;DHT22;9309;52.126;11.616;2023-06-10T01:25:27;15.10;77.30
18365;DHT22;9309;52.126;11.616;2023-06-10T01:27:58;15.20;76.70
18365;DHT22;9309;52.126;11.616;2023-06-10T01:30:29;15.20;77.10
18365;DHT22;9309;52.126;11.616;2023-06-10T01:32:59;15.10;77.60
18365;DHT22;9309;52.126;11.616;2023-06-10T01:35:29;15.00;78.30
18365;DHT22;9309;52.126;11.616;2023-06-10T01:37:59;15.10;77.20
18365;DHT22;9309;52.126;11.616;2023-06-10T01:40:29;15.10;77.50
18365;DHT22;9309;52.126;11.616;2023-06-10T01:42:56;15.00;77.80
18365;DHT22;9309;52.126;11.616;2023-06-10T01:45:23;15.00;77.50
18365;DHT22;9309;52.126;11.616;2023-06-10T01:47:49;15.00;77.30
18365;DHT22;9309;52.126;11.616;2023-06-10T01:50:16;15.00;77.70
18365;DHT22;9309;52.126;11.616;2023-06-10T01:52:43;15.10;77.70
18365;DHT22;9309;52.126;11.616;2023-06-10T01:55:11;15.00;77.50
18365;DHT22;9309;52.126;11.616;2023-06-10T01:57:39;14.90;78.50
18365;DHT22;9309;52.126;11.616;2023-06-10T02:00:07;14.90;78.20
18365;DHT22;9309;52.126;11.616;2023-06-10T02:02:40;14.90;78.00
18365;DHT22;9309;52.126;11.616;2023-06-10T02:05:07;14.90;78.60
18365;DHT22;9309;52.126;11.616;2023-06-10T02:07:34;15.00;78.30
18365;DHT22;9309;52.126;11.616;2023-06-10T02:10:01;14.90;78.50
18365;DHT22;9309;52.126;11.616;2023-06-10T02:12:29;14.90;78.40
18365;DHT22;9309;52.126;11.616;2023-06-10T02:14:56;14.80;78.80
18365;DHT22;9309;52.126;11.616;2023-06-10T02:17:23;14.90;78.30
18365;DHT22;9309;52.126;11.616;2023-06-10T02:19:50;14.90;77.90
18365;DHT22;9309;52.126;11.616;2023-06-10T02:22:20;14.70;79.00
18365;DHT22;9309;52.126;11.616;2023-06-10T02:24:46;14.70;79.20
18365;DHT22;9309;52.126;11.616;2023-06-10T02:27:14;14.60;79.20
18365;DHT22;9309;52.126;11.616;2023-06-10T02:29:42;14.50;79.70
18365;DHT22;9309;52.126;11.616;2023-06-10T02:32:10;14.50;80.30
18365;DHT22;9309;52.126;11.616;2023-06-10T02:34:37;14.50;79.70
18365;DHT22;9309;52.126;11.616;2023-06-10T02:37:06;14.60;79.50
18365;DHT22;9309;52.126;11.616;2023-06-10T02:39:32;14.70;79.40
18365;DHT22;9309;52.126;11.616;2023-06-10T02:42:01;14.80;78.80
18365;DHT22;9309;52.126;11.616;2023-06-10T02:44:28;14.60;79.00
18365;DHT22;9309;52.126;11.616;2023-06-10T02:46:56;14.50;79.40
18365;DHT22;9309;52.126;11.616;2023-06-10T02:49:23;14.50;80.30
18365;DHT22;9309;52.126;11.616;2023-06-10T02:51:50;14.40;80.10
18365;DHT22;9309;52.126;11.616;2023-06-10T02:54:19;14.50;80.40
18365;DHT22;9309;52.126;11.616;2023-06-10T02:56:46;14.40;80.10
18365;DHT22;9309;52.126;11.616;2023-06-10T02:59:19;14.40;80.70
18365;DHT22;9309;52.126;11.616;2023-06-10T03:01:46;14.40;80.40
18365;DHT22;9309;52.126;11.616;2023-06-10T03:04:14;14.60;79.90
18365;DHT22;9309;52.126;11.616;2023-06-10T03:06:49;14.70;78.40
18365;DHT22;9309;52.126;11.616;2023-06-10T03:09:24;14.50;79.90
18365;DHT22;9309;52.126;11.616;2023-06-10T03:11:55;14.50;78.50
18365;DHT22;9309;52.126;11.616;2023-06-10T03:14:22;14.30;79.60
18365;DHT22;9309;52.126;11.616;2023-06-10T03:16:50;14.30;80.20
18365;DHT22;9309;52.126;11.616;2023-06-10T03:19:20;14.30;80.20
18365;DHT22;9309;52.126;11.616;2023-06-10T03:21:59;14.30;79.70
18365;DHT22;9309;52.126;11.616;2023-06-10T03:24:33;14.30;79.60
18365;DHT22;9309;52.126;11.616;2023-06-10T03:27:02;14.20;80.30
18365;DHT22;9309;52.126;11.616;2023-06-10T03:29:30;14.10;80.50
18365;DHT22;9309;52.126;11.616;2023-06-10T03:31:57;14.10;80.80
18365;DHT22;9309;52.126;11.616;2023-06-10T03:34:26;14.20;80.70
18365;DHT22;9309;52.126;11.616;2023-06-10T03:36:52;14.10;80.50
18365;DHT22;9309;52.126;11.616;2023-06-10T03:39:19;14.20;79.80
18365;DHT22;9309;52.126;11.616;2023-06-10T03:41:47;14.10;81.20
18365;DHT22;9309;52.126;11.616;2023-06-10T03:44:13;14.00;81.20
18365;DHT22;9309;52.126;11.616;2023-06-10T03:46:40;13.90;81.70
18365;DHT22;9309;52.126;11.616;2023-06-10T03:49:07;13.90;81.60
18365;DHT22;9309;52.126;11.616;2023-06-10T03:51:36;14.00;81.90
18365;DHT22;9309;52.126;11.616;2023-06-10T03:54:03;14.10;80.80
18365;DHT22;9309;52.126;11.616;2023-06-10T03:56:30;14.20;80.60
18365;DHT22;9309;52.126;11.616;2023-06-10T03:58:57;14.20;80.90
18365;DHT22;9309;52.126;11.616;2023-06-10T04:01:24;14.20;80.00
18365;DHT22;9309;52.126;11.616;2023-06-10T04:03:51;14.10;80.40
18365;DHT22;9309;52.126;11.616;2023-06-10T04:06:19;14.10;80.20
18365;DHT22;9309;52.126;11.616;2023-06-10T04:08:49;14.10;79.90
18365;DHT22;9309;52.126;11.616;2023-06-10T04:11:16;14.00;79.90
18365;DHT22;9309;52.126;11.616;2023-06-10T04:13:42;13.90;80.40
18365;DHT22;9309;52.126;11.616;2023-06-10T04:16:09;13.80;82.00
18365;DHT22;9309;52.126;11.616;2023-06-10T04:18:36;13.80;82.00
18365;DHT22;9309;52.126;11.616;2023-06-10T04:21:05;13.80;82.10
18365;DHT22;9309;52.126;11.616;2023-06-10T04:23:32;13.90;81.90
18365;DHT22;9309;52.126;11.616;2023-06-10T04:26:01;13.90;81.60
18365;DHT22;9309;52.126;11.616;2023-06-10T04:28:28;14.00;80.90
18365;DHT22;9309;52.126;11.616;2023-06-10T04:30:55;14.00;80.80
18365;DHT22;9309;52.126;11.616;2023-06-10T04:33:23;13.90;81.70
18365;DHT22;9309;52.126;11.616;2023-06-10T04:35:50;14.00;81.40
18365;DHT22;9309;52.126;11.616;2023-06-10T04:38:19;14.00;81.70
18365;DHT22;9309;52.126;11.616;2023-06-10T04:40:46;14.10;81.10
18365;DHT22;9309;52.126;11.616;2023-06-10T04:43:16;14.30;80.00
18365;DHT22;9309;52.126;11.616;2023-06-10T04:45:45;14.30;80.80
18365;DHT22;9309;52.126;11.616;2023-06-10T04:48:19;14.30;80.70
18365;DHT22;9309;52.126;11.616;2023-06-10T04:50:46;14.30;79.90
18365;DHT22;9309;52.126;11.616;2023-06-10T04:53:14;14.20;80.80
18365;DHT22;9309;52.126;11.616;2023-06-10T04:55:45;14.40;80.80
18365;DHT22;9309;52.126;11.616;2023-06-10T04:58:12;14.50;79.30
18365;DHT22;9309;52.126;11.616;2023-06-10T05:00:40;14.50;79.70
18365;DHT22;9309;52.126;11.616;2023-06-10T05:03:06;14.50;79.60
18365;DHT22;9309;52.126;11.616;2023-06-10T05:05:33;14.70;79.50
18365;DHT22;9309;52.126;11.616;2023-06-10T05:08:00;14.80;78.90
18365;DHT22;9309;52.126;11.616;2023-06-10T05:10:26;14.80;79.10
18365;DHT22;9309;52.126;11.616;2023-06-10T05:12:56;15.00;77.90
18365;DHT22;9309;52.126;11.616;2023-06-10T05:15:23;15.00;78.00
18365;DHT22;9309;52.126;11.616;2023-06-10T05:17:51;15.10;77.40
18365;DHT22;9309;52.126;11.616;2023-06-10T05:20:18;15.20;77.60
18365;DHT22;9309;52.126;11.616;2023-06-10T05:22:45;15.00;78.30
18365;DHT22;9309;52.126;11.616;2023-06-10T05:25:11;15.20;77.30
18365;DHT22;9309;52.126;11.616;2023-06-10T05:27:38;15.20;77.50
18365;DHT22;9309;52.126;11.616;2023-06-10T05:30:07;15.20;77.70
18365;DHT22;9309;52.126;11.616;2023-06-10T05:32:34;15.30;76.80
18365;DHT22;9309;52.126;11.616;2023-06-10T05:35:02;15.20;77.20
18365;DHT22;9309;52.126;11.616;2023-06-10T05:37:30;15.20;77.60
18365;DHT22;9309;52.126;11.616;2023-06-10T05:39:56;15.40;77.30
18365;DHT22;9309;52.126;11.616;2023-06-10T05:42:23;15.40;78.00
18365;DHT22;9309;52.126;11.616;2023-06-10T05:44:49;15.50;76.70
18365;DHT22;9309;52.126;11.616;2023-06-10T05:47:16;15.50;77.20
18365;DHT22;9309;52.126;11.616;2023-06-10T05:49:42;15.60;76.80
18365;DHT22;9309;52.126;11.616;2023-06-10T05:52:12;15.80;76.20
18365;DHT22;9309;52.126;11.616;2023-06-10T05:54:38;15.80;75.60
18365;DHT22;9309;52.126;11.616;2023-06-10T05:57:05;16.00;75.40
18365;DHT22;9309;52.126;11.616;2023-06-10T05:59:31;16.10;74.50
18365;DHT22;9309;52.126;11.616;2023-06-10T06:01:58;16.10;74.70
18365;DHT22;9309;52.126;11.616;2023-06-10T06:04:25;16.00;75.00
18365;DHT22;9309;52.126;11.616;2023-06-10T06:06:51;16.00;75.00
18365;DHT22;9309;52.126;11.616;2023-06-10T06:09:19;16.10;74.90
18365;DHT22;9309;52.126;11.616;2023-06-10T06:11:45;16.30;74.40
18365;DHT22;9309;52.126;11.616;2023-06-10T06:14:12;16.40;73.90
18365;DHT22;9309;52.126;11.616;2023-06-10T06:16:39;16.40;73.30
18365;DHT22;9309;52.126;11.616;2023-06-10T06:19:05;16.60;73.20
18365;DHT22;9309;52.126;11.616;2023-06-10T06:21:32;16.70;72.50
18365;DHT22;9309;52.126;11.616;2023-06-10T06:23:58;16.80;73.30
18365;DHT22;9309;52.126;11.616;2023-06-10T06:26:26;16.80;72.40
18365;DHT22;9309;52.126;11.616;2023-06-10T06:28:53;16.70;72.80
18365;DHT22;9309;52.126;11.616;2023-06-10T06:31:19;16.60;73.40
18365;DHT22;9309;52.126;11.616;2023-06-10T06:33:46;16.70;72.80
18365;DHT22;9309;52.126;11.616;2023-06-10T06:36:12;16.70;72.70
18365;DHT22;9309;52.126;11.616;2023-06-10T06:38:39;16.90;72.50
18365;DHT22;9309;52.126;11.616;2023-06-10T06:41:06;17.00;72.70
18365;DHT22;9309;52.126;11.616;2023-06-10T06:43:33;17.00;72.40
18365;DHT22;9309;52.126;11.616;2023-06-10T06:46:09;17.10;72.30
18365;DHT22;9309;52.126;11.616;2023-06-10T06:48:36;17.00;72.10
18365;DHT22;9309;52.126;11.616;2023-06-10T06:51:02;17.00;72.50
18365;DHT22;9309;52.126;11.616;2023-06-10T06:53:29;17.10;72.40
18365;DHT22;9309;52.126;11.616;2023-06-10T06:55:55;17.20;72.10
18365;DHT22;9309;52.126;11.616;2023-06-10T06:58:22;17.60;70.00
18365;DHT22;9309;52.126;11.616;2023-06-10T07:00:50;17.40;70.60
18365;DHT22;9309;52.126;11.616;2023-06-10T07:03:16;17.60;70.40
18365;DHT22;9309;52.126;11.616;2023-06-10T07:05:43;17.80;69.90
18365;DHT22;9309;52.126;11.616;2023-06-10T07:08:09;18.00;69.10
18365;DHT22;9309;52.126;11.616;2023-06-10T07:10:37;18.10;68.90
18365;DHT22;9309;52.126;11.616;2023-06-10T07:13:04;18.00;69.40
18365;DHT22;9309;52.126;11.616;2023-06-10T07:15:30;18.10;68.90
18365;DHT22;9309;52.126;11.616;2023-06-10T07:17:59;18.40;68.20
18365;DHT22;9309;52.126;11.616;2023-06-10T07:20:25;18.30;67.80
18365;DHT22;9309;52.126;11.616;2023-06-10T07:22:52;18.60;67.20
18365;DHT22;9309;52.126;11.616;2023-06-10T07:25:19;18.70;67.50
18365;DHT22;9309;52.126;11.616;2023-06-10T07:27:45;18.80;67.00
18365;DHT22;9309;52.126;11.616;2023-06-10T07:30:12;18.80;66.30
18365;DHT22;9309;52.126;11.616;2023-06-10T07:32:39;18.90;66.20
18365;DHT22;9309;52.126;11.616;2023-06-10T07:35:07;19.00;65.70
18365;DHT22;9309;52.126;11.616;2023-06-10T07:37:34;18.90;66.30
18365;DHT22;9309;52.126;11.616;2023-06-10T07:40:01;18.90;67.40
18365;DHT22;9309;52.126;11.616;2023-06-10T07:42:28;19.20;65.90
18365;DHT22;9309;52.126;11.616;2023-06-10T07:44:54;19.10;65.60
18365;DHT22;9309;52.126;11.616;2023-06-10T07:47:21;19.20;65.80
18365;DHT22;9309;52.126;11.616;2023-06-10T07:49:47;19.40;65.70
18365;DHT22;9309;52.126;11.616;2023-06-10T07:52:15;19.40;65.40
18365;DHT22;9309;52.126;11.616;2023-06-10T07:54:42;19.30;65.10
18365;DHT22;9309;52.126;11.616;2023-06-10T07:57:08;19.40;64.80
18365;DHT22;9309;52.126;11.616;2023-06-10T07:59:35;19.50;64.70
18365;DHT22;9309;52.126;11.616;2023-06-10T08:02:02;19.60;64.70
18365;DHT22;9309;52.126;11.616;2023-06-10T08:04:28;19.60;64.70
18365;DHT22;9309;52.126;11.616;2023-06-10T08:06:56;19.60;64.70
18365;DHT22;9309;52.126;11.616;2023-06-10T08:09:24;19.70;64.70
18365;DHT22;9309;52.126;11.616;2023-06-10T08:11:51;19.90;63.70
18365;DHT22;9309;52.126;11.616;2023-06-10T08:14:17;20.10;62.80
18365;DHT22;9309;52.126;11.616;2023-06-10T08:16:44;20.10;63.40
18365;DHT22;9309;52.126;11.616;2023-06-10T08:19:11;20.20;63.40
18365;DHT22;9309;52.126;11.616;2023-06-10T08:21:37;20.40;62.70
18365;DHT22;9309;52.126;11.616;2023-06-10T08:24:05;20.30;62.60
18365;DHT22;9309;52.126;11.616;2023-06-10T08:26:33;20.60;61.80
18365;DHT22;9309;52.126;11.616;2023-06-10T08:28:59;20.40;62.10
18365;DHT22;9309;52.126;11.616;2023-06-10T08:31:26;20.40;62.80
18365;DHT22;9309;52.126;11.616;2023-06-10T08:33:53;20.40;62.40
18365;DHT22;9309;52.126;11.616;2023-06-10T08:36:19;20.40;62.40
18365;DHT22;9309;52.126;11.616;2023-06-10T08:38:46;20.50;62.30
18365;DHT22;9309;52.126;11.616;2023-06-10T08:41:12;20.80;61.90
18365;DHT22;9309;52.126;11.616;2023-06-10T08:43:43;21.00;60.50
18365;DHT22;9309;52.126;11.616;2023-06-10T08:46:10;20.90;61.40
18365;DHT22;9309;52.126;11.616;2023-06-10T08:48:38;20.90;61.90
18365;DHT22;9309;52.126;11.616;2023-06-10T08:51:06;21.30;60.60
18365;DHT22;9309;52.126;11.616;2023-06-10T08:53:33;21.40;60.50
18365;DHT22;9309;52.126;11.616;2023-06-10T08:56:03;21.40;59.90
18365;DHT22;9309;52.126;11.616;2023-06-10T08:58:30;21.50;59.90
18365;DHT22;9309;52.126;11.616;2023-06-10T09:00:59;21.30;60.20
18365;DHT22;9309;52.126;11.616;2023-06-10T09:03:26;21.40;59.50
18365;DHT22;9309;52.126;11.616;2023-06-10T09:05:53;21.40;59.80
18365;DHT22;9309;52.126;11.616;2023-06-10T09:08:20;21.50;59.30
18365;DHT22;9309;52.126;11.616;2023-06-10T09:10:47;21.50;59.90
18365;DHT22;9309;52.126;11.616;2023-06-10T09:13:13;21.50;60.40
18365;DHT22;9309;52.126;11.616;2023-06-10T09:15:43;21.70;59.60
18365;DHT22;9309;52.126;11.616;2023-06-10T09:18:12;22.00;58.60
18365;DHT22;9309;52.126;11.616;2023-06-10T09:20:39;22.10;58.50
18365;DHT22;9309;52.126;11.616;2023-06-10T09:23:05;22.20;58.00
18365;DHT22;9309;52.126;11.616;2023-06-10T09:25:36;22.50;57.30
18365;DHT22;9309;52.126;11.616;2023-06-10T09:28:03;22.80;56.90
18365;DHT22;9309;52.126;11.616;2023-06-10T09:30:30;23.00;55.40
18365;DHT22;9309;52.126;11.616;2023-06-10T09:32:57;22.80;56.30
18365;DHT22;9309;52.126;11.616;2023-06-10T09:35:26;22.60;56.50
18365;DHT22;9309;52.126;11.616;2023-06-10T09:37:52;22.60;57.30
18365;DHT22;9309;52.126;11.616;2023-06-10T09:40:19;22.80;56.90
18365;DHT22;9309;52.126;11.616;2023-06-10T09:42:46;22.80;57.00
18365;DHT22;9309;52.126;11.616;2023-06-10T09:45:19;22.80;56.90
18365;DHT22;9309;52.126;11.616;2023-06-10T09:47:45;22.90;57.10
18365;DHT22;9309;52.126;11.616;2023-06-10T09:50:12;23.00;56.80
18365;DHT22;9309;52.126;11.616;2023-06-10T09:52:40;23.50;55.70
18365;DHT22;9309;52.126;11.616;2023-06-10T09:55:07;23.90;54.10
18365;DHT22;9309;52.126;11.616;2023-06-10T09:57:34;23.90;53.70
18365;DHT22;9309;52.126;11.616;2023-06-10T10:00:03;24.00;53.60
18365;DHT22;9309;52.126;11.616;2023-06-10T10:02:43;24.10;53.00
18365;DHT22;9309;52.126;11.616;2023-06-10T10:05:10;23.80;53.60
18365;DHT22;9309;52.126;11.616;2023-06-10T10:07:36;23.70;54.40
18365;DHT22;9309;52.126;11.616;2023-06-10T10:10:04;23.80;54.10
18365;DHT22;9309;52.126;11.616;2023-06-10T10:12:32;24.00;53.30
18365;DHT22;9309;52.126;11.616;2023-06-10T10:14:59;24.30;52.60
18365;DHT22;9309;52.126;11.616;2023-06-10T10:17:26;25.30;50.20
18365;DHT22;9309;52.126;11.616;2023-06-10T10:19:53;25.50;49.20
18365;DHT22;9309;52.126;11.616;2023-06-10T10:22:24;25.50;48.60
18365;DHT22;9309;52.126;11.616;2023-06-10T10:24:52;25.60;48.80
18365;DHT22;9309;52.126;11.616;2023-06-10T10:27:24;25.50;50.40
18365;DHT22;9309;52.126;11.616;2023-06-10T10:29:54;27.10;47.50
18365;DHT22;9309;52.126;11.616;2023-06-10T10:32:26;29.70;41.60
18365;DHT22;9309;52.126;11.616;2023-06-10T10:35:00;31.60;38.20
18365;DHT22;9309;52.126;11.616;2023-06-10T10:37:30;32.40;36.50
18365;DHT22;9309;52.126;11.616;2023-06-10T10:39:58;34.00;34.50
18365;DHT22;9309;52.126;11.616;2023-06-10T10:42:27;35.60;31.60
18365;DHT22;9309;52.126;11.616;2023-06-10T10:44:54;37.50;30.30
18365;DHT22;9309;52.126;11.616;2023-06-10T10:47:22;39.30;27.10
18365;DHT22;9309;52.126;11.616;2023-06-10T10:49:50;40.30;26.00
18365;DHT22;9309;52.126;11.616;2023-06-10T10:52:17;41.30;25.30
18365;DHT22;9309;52.126;11.616;2023-06-10T10:54:45;41.90;24.70
18365;DHT22;9309;52.126;11.616;2023-06-10T10:57:14;41.20;24.50
18365;DHT22;9309;52.126;11.616;2023-06-10T10:59:51;40.70;25.60
18365;DHT22;9309;52.126;11.616;2023-06-10T11:02:18;41.20;24.80
18365;DHT22;9309;52.126;11.616;2023-06-10T11:04:46;41.30;24.80
18365;DHT22;9309;52.126;11.616;2023-06-10T11:07:12;42.20;24.30
18365;DHT22;9309;52.126;11.616;2023-06-10T11:09:57;43.80;22.50
18365;DHT22;9309;52.126;11.616;2023-06-10T11:12:25;44.30;21.40
18365;DHT22;9309;52.126;11.616;2023-06-10T11:14:55;43.80;21.80
18365;DHT22;9309;52.126;11.616;2023-06-10T11:17:22;43.00;22.40
18365;DHT22;9309;52.126;11.616;2023-06-10T11:19:49;44.00;22.10
18365;DHT22;9309;52.126;11.616;2023-06-10T11:22:16;45.20;20.80
18365;DHT22;9309;52.126;11.616;2023-06-10T11:24:47;44.80;21.20
18365;DHT22;9309;52.126;11.616;2023-06-10T11:27:21;44.40;21.70
18365;DHT22;9309;52.126;11.616;2023-06-10T11:30:20;44.60;21.10
18365;DHT22;9309;52.126;11.616;2023-06-10T11:32:51;44.90;20.80
18365;DHT22;9309;52.126;11.616;2023-06-10T11:35:19;40.50;23.20
18365;DHT22;9309;52.126;11.616;2023-06-10T11:37:46;35.90;27.70
18365;DHT22;9309;52.126;11.616;2023-06-10T11:40:14;35.10;29.00
18365;DHT22;9309;52.126;11.616;2023-06-10T11:42:41;36.50;28.00
18365;DHT22;9309;52.126;11.616;2023-06-10T11:45:09;38.50;25.60
18365;DHT22;9309;52.126;11.616;2023-06-10T11:47:37;39.50;25.20
18365;DHT22;9309;52.126;11.616;2023-06-10T11:50:04;38.80;25.40
18365;DHT22;9309;52.126;11.616;2023-06-10T11:52:31;38.80;25.60
18365;DHT22;9309;52.126;11.616;2023-06-10T11:55:04;37.50;26.70
18365;DHT22;9309;52.126;11.616;2023-06-10T11:57:33;37.00;27.40
18365;DHT22;9309;52.126;11.616;2023-06-10T12:00:04;39.40;24.90
18365;DHT22;9309;52.126;11.616;2023-06-10T12:02:38;40.60;24.00
18365;DHT22;9309;52.126;11.616;2023-06-10T12:05:11;41.50;23.40
18365;DHT22;9309;52.126;11.616;2023-06-10T12:07:38;41.20;23.60
18365;DHT22;9309;52.126;11.616;2023-06-10T12:10:06;41.90;22.70
18365;DHT22;9309;52.126;11.616;2023-06-10T12:12:34;42.90;22.20
18365;DHT22;9309;52.126;11.616;2023-06-10T12:15:02;42.40;22.30
18365;DHT22;9309;52.126;11.616;2023-06-10T12:17:38;42.90;22.10
18365;DHT22;9309;52.126;11.616;2023-06-10T12:20:06;40.70;23.70
18365;DHT22;9309;52.126;11.616;2023-06-10T12:22:37;39.90;24.30
18365;DHT22;9309;52.126;11.616;2023-06-10T12:25:05;39.60;24.60
18365;DHT22;9309;52.126;11.616;2023-06-10T12:27:33;39.60;24.90
18365;DHT22;9309;52.126;11.616;2023-06-10T12:30:01;39.20;25.20
18365;DHT22;9309;52.126;11.616;2023-06-10T12:32:38;38.00;26.50
18365;DHT22;9309;52.126;11.616;2023-06-10T12:35:07;36.80;27.90
18365;DHT22;9309;52.126;11.616;2023-06-10T12:37:34;36.80;28.20
18365;DHT22;9309;52.126;11.616;2023-06-10T12:40:03;35.60;28.90
18365;DHT22;9309;52.126;11.616;2023-06-10T12:42:31;35.50;29.30
18365;DHT22;9309;52.126;11.616;2023-06-10T12:45:00;38.50;26.00
18365;DHT22;9309;52.126;11.616;2023-06-10T12:47:31;39.10;25.40
18365;DHT22;9309;52.126;11.616;2023-06-10T12:50:02;40.70;24.30
18365;DHT22;9309;52.126;11.616;2023-06-10T12:52:29;40.30;23.80
18365;DHT22;9309;52.126;11.616;2023-06-10T12:54:56;39.10;24.90
18365;DHT22;9309;52.126;11.616;2023-06-10T12:57:24;40.50;24.00
18365;DHT22;9309;52.126;11.616;2023-06-10T12:59:51;42.00;22.90
18365;DHT22;9309;52.126;11.616;2023-06-10T13:02:18;41.40;23.00
18365;DHT22;9309;52.126;11.616;2023-06-10T13:04:46;38.30;25.90
18365;DHT22;9309;52.126;11.616;2023-06-10T13:07:15;37.20;27.20
18365;DHT22;9309;52.126;11.616;2023-06-10T13:09:41;36.50;27.30
18365;DHT22;9309;52.126;11.616;2023-06-10T13:12:08;35.80;27.90
18365;DHT22;9309;52.126;11.616;2023-06-10T13:14:35;34.50;29.90
18365;DHT22;9309;52.126;11.616;2023-06-10T13:17:03;35.80;29.10
18365;DHT22;9309;52.126;11.616;2023-06-10T13:19:31;38.50;25.30
18365;DHT22;9309;52.126;11.616;2023-06-10T13:21:58;39.40;24.90
18365;DHT22;9309;52.126;11.616;2023-06-10T13:24:26;39.80;24.80
18365;DHT22;9309;52.126;11.616;2023-06-10T13:26:52;39.50;24.60
18365;DHT22;9309;52.126;11.616;2023-06-10T13:29:20;37.50;26.90
18365;DHT22;9309;52.126;11.616;2023-06-10T13:31:47;35.50;29.30
18365;DHT22;9309;52.126;11.616;2023-06-10T13:34:13;33.00;31.70
18365;DHT22;9309;52.126;11.616;2023-06-10T13:36:40;32.90;32.40
18365;DHT22;9309;52.126;11.616;2023-06-10T13:39:07;32.60;32.10
18365;DHT22;9309;52.126;11.616;2023-06-10T13:41:35;31.80;33.00
18365;DHT22;9309;52.126;11.616;2023-06-10T13:44:01;31.00;34.50
18365;DHT22;9309;52.126;11.616;2023-06-10T13:46:28;30.60;34.70
18365;DHT22;9309;52.126;11.616;2023-06-10T13:48:54;31.00;33.90
18365;DHT22;9309;52.126;11.616;2023-06-10T13:51:21;34.40;30.10
18365;DHT22;9309;52.126;11.616;2023-06-10T13:53:48;37.60;26.20
18365;DHT22;9309;52.126;11.616;2023-06-10T13:56:16;39.30;24.40
18365;DHT22;9309;52.126;11.616;2023-06-10T13:58:44;37.20;25.70
18365;DHT22;9309;52.126;11.616;2023-06-10T14:01:10;32.10;34.70
18365;DHT22;9309;52.126;11.616;2023-06-10T14:03:37;26.70;46.00
18365;DHT22;9309;52.126;11.616;2023-06-10T14:06:04;23.60;57.00
18365;DHT22;9309;52.126;11.616;2023-06-10T14:08:30;22.20;60.90
18365;DHT22;9309;52.126;11.616;2023-06-10T14:10:57;21.50;61.80
18365;DHT22;9309;52.126;11.616;2023-06-10T14:13:24;21.40;65.80
18365;DHT22;9309;52.126;11.616;2023-06-10T14:15:52;21.10;64.50
18365;DHT22;9309;52.126;11.616;2023-06-10T14:18:18;21.00;64.40
18365;DHT22;9309;52.126;11.616;2023-06-10T14:20:45;20.70;63.90
18365;DHT22;9309;52.126;11.616;2023-06-10T14:23:11;20.40;62.30
18365;DHT22;9309;52.126;11.616;2023-06-10T14:25:38;20.40;63.80
18365;DHT22;9309;52.126;11.616;2023-06-10T14:28:05;20.40;60.40
18365;DHT22;9309;52.126;11.616;2023-06-10T14:30:31;20.50;59.30
18365;DHT22;9309;52.126;11.616;2023-06-10T14:32:59;20.60;60.20
18365;DHT22;9309;52.126;11.616;2023-06-10T14:35:26;20.40;60.60
18365;DHT22;9309;52.126;11.616;2023-06-10T14:37:53;20.30;63.40
18365;DHT22;9309;52.126;11.616;2023-06-10T14:40:19;20.20;66.00
18365;DHT22;9309;52.126;11.616;2023-06-10T14:42:47;20.30;65.90
18365;DHT22;9309;52.126;11.616;2023-06-10T14:45:13;20.30;67.10
18365;DHT22;9309;52.126;11.616;2023-06-10T14:47:40;20.40;66.50
18365;DHT22;9309;52.126;11.616;2023-06-10T14:50:09;20.40;68.20
18365;DHT22;9309;52.126;11.616;2023-06-10T14:52:35;20.40;72.20
18365;DHT22;9309;52.126;11.616;2023-06-10T14:55:02;20.40;68.00
18365;DHT22;9309;52.126;11.616;2023-06-10T14:57:29;20.60;71.20
18365;DHT22;9309;52.126;11.616;2023-06-10T14:59:56;21.00;69.00
18365;DHT22;9309;52.126;11.616;2023-06-10T15:02:23;21.40;70.60
18365;DHT22;9309;52.126;11.616;2023-06-10T15:04:49;21.70;69.10
18365;DHT22;9309;52.126;11.616;2023-06-10T15:07:17;21.90;70.90
18365;DHT22;9309;52.126;11.616;2023-06-10T15:09:44;22.00;69.50
18365;DHT22;9309;52.126;11.616;2023-06-10T15:12:11;22.20;70.20
18365;DHT22;9309;52.126;11.616;2023-06-10T15:14:37;22.00;72.40
18365;DHT22;9309;52.126;11.616;2023-06-10T15:17:04;22.00;72.10
18365;DHT22;9309;52.126;11.616;2023-06-10T15:19:31;22.10;73.10
18365;DHT22;9309;52.126;11.616;2023-06-10T15:21:57;22.40;70.60
18365;DHT22;9309;52.126;11.616;2023-06-10T15:24:25;22.90;69.40
18365;DHT22;9309;52.126;11.616;2023-06-10T15:26:52;22.90;69.00
18365;DHT22;9309;52.126;11.616;2023-06-10T15:29:18;22.50;69.90
18365;DHT22;9309;52.126;11.616;2023-06-10T15:31:45;22.30;71.20
18365;DHT22;9309;52.126;11.616;2023-06-10T15:34:12;22.60;71.60